createdAt,value
2023-07-21T00:01:10.860Z,13.43
2023-07-21T00:03:43.135Z,13.45
2023-07-21T00:06:11.056Z,13.39
2023-07-21T00:08:39.373Z,13.21
2023-07-21T00:11:06.669Z,13.30
2023-07-21T00:13:37.709Z,13.31
2023-07-21T00:16:05.838Z,13.29
2023-07-21T00:18:34.739Z,13.13
2023-07-21T00:21:06.619Z,13.35
2023-07-21T00:23:35.010Z,13.45
2023-07-21T00:26:02.723Z,13.48
2023-07-21T00:28:29.921Z,13.53
2023-07-21T00:30:57.249Z,13.55
2023-07-21T00:33:26.720Z,13.57
2023-07-21T00:35:56.612Z,13.57
2023-07-21T00:38:24.336Z,13.51
2023-07-21T00:40:54.035Z,13.36
2023-07-21T00:43:21.337Z,13.50
2023-07-21T00:45:49.010Z,13.47
2023-07-21T00:48:20.485Z,13.32
2023-07-21T00:50:51.147Z,13.43
2023-07-21T00:53:20.273Z,13.47
2023-07-21T00:55:49.351Z,13.38
2023-07-21T00:58:18.814Z,13.49
2023-07-21T01:00:47.997Z,13.42
2023-07-21T01:03:17.989Z,13.46
2023-07-21T01:05:50.814Z,13.46
2023-07-21T01:08:19.312Z,13.37
2023-07-21T01:10:48.169Z,13.50
2023-07-21T01:13:15.701Z,13.49
2023-07-21T01:15:49.553Z,13.47
2023-07-21T01:18:19.496Z,13.51
2023-07-21T01:20:49.450Z,13.34
2023-07-21T01:23:41.217Z,13.57
2023-07-21T01:26:11.360Z,13.55
2023-07-21T01:28:42.027Z,13.56
2023-07-21T01:31:10.046Z,13.56
2023-07-21T01:33:38.390Z,13.50
2023-07-21T01:36:08.370Z,13.41
2023-07-21T01:38:36.765Z,13.28
2023-07-21T01:41:04.518Z,13.44
2023-07-21T01:43:32.030Z,13.43
2023-07-21T01:45:59.143Z,13.40
2023-07-21T01:48:26.239Z,13.47
2023-07-21T01:50:56.606Z,13.48
2023-07-21T01:53:28.459Z,13.47
2023-07-21T01:56:04.281Z,13.28
2023-07-21T01:58:34.176Z,13.41
2023-07-21T02:01:03.044Z,13.44
2023-07-21T02:03:30.419Z,13.42
2023-07-21T02:05:57.611Z,13.40
2023-07-21T02:08:24.699Z,13.41
2023-07-21T02:10:53.373Z,13.29
2023-07-21T02:13:52.849Z,13.38
2023-07-21T02:16:22.136Z,13.45
2023-07-21T02:18:49.389Z,13.32
2023-07-21T02:21:17.150Z,13.27
2023-07-21T02:23:44.339Z,13.43
2023-07-21T02:26:11.755Z,13.46
2023-07-21T02:28:40.454Z,13.36
2023-07-21T02:31:08.319Z,13.39
2023-07-21T02:33:35.415Z,13.50
2023-07-21T02:36:04.938Z,13.55
2023-07-21T02:38:32.217Z,13.39
2023-07-21T02:41:06.508Z,13.41
2023-07-21T02:43:36.741Z,13.60
2023-07-21T02:46:05.650Z,13.47
2023-07-21T02:48:35.000Z,13.45
2023-07-21T02:51:02.390Z,13.62
2023-07-21T02:53:35.942Z,13.53
2023-07-21T02:56:05.271Z,13.42
2023-07-21T02:58:44.680Z,13.61
2023-07-21T03:01:19.863Z,13.65
2023-07-21T03:03:47.189Z,13.67
2023-07-21T03:06:16.860Z,13.63
2023-07-21T03:08:44.257Z,13.53
2023-07-21T03:11:15.229Z,13.62
2023-07-21T03:14:08.258Z,13.67
2023-07-21T03:16:35.767Z,13.57
2023-07-21T03:19:03.276Z,13.72
2023-07-21T03:21:31.102Z,13.75
2023-07-21T03:23:58.607Z,13.60
2023-07-21T03:26:29.240Z,13.83
2023-07-21T03:28:56.916Z,13.69
2023-07-21T03:31:26.651Z,13.86
2023-07-21T03:34:00.942Z,13.77
2023-07-21T03:36:31.098Z,13.77
2023-07-21T03:38:59.471Z,13.69
2023-07-21T03:41:26.833Z,13.74
2023-07-21T03:43:53.901Z,13.50
2023-07-21T03:46:22.193Z,13.61
2023-07-21T03:48:58.170Z,13.78
2023-07-21T03:51:26.231Z,13.80
2023-07-21T03:53:53.713Z,13.87
2023-07-21T03:56:28.991Z,13.87
2023-07-21T03:58:57.897Z,13.83
2023-07-21T04:01:30.118Z,13.80
2023-07-21T04:03:57.527Z,13.86
2023-07-21T04:06:25.960Z,13.76
2023-07-21T04:08:55.217Z,13.76
2023-07-21T04:11:23.729Z,13.86
2023-07-21T04:13:51.297Z,13.92
2023-07-21T04:16:18.634Z,13.94
2023-07-21T04:18:45.967Z,13.99
2023-07-21T04:21:13.134Z,14.01
2023-07-21T04:23:40.499Z,14.09
2023-07-21T04:26:08.660Z,14.17
2023-07-21T04:28:35.849Z,14.11
2023-07-21T04:31:03.081Z,14.27
2023-07-21T04:33:39.366Z,14.35
2023-07-21T04:36:06.683Z,14.46
2023-07-21T04:38:34.038Z,14.48
2023-07-21T04:41:09.429Z,14.66
2023-07-21T04:43:37.145Z,14.83
2023-07-21T04:46:04.316Z,14.75
2023-07-21T04:48:37.966Z,15.03
2023-07-21T04:51:06.150Z,15.21
2023-07-21T04:53:33.302Z,15.09
2023-07-21T04:56:00.500Z,15.33
2023-07-21T04:58:32.491Z,15.29
2023-07-21T05:01:00.251Z,15.53
2023-07-21T05:03:27.498Z,15.44
2023-07-21T05:05:54.649Z,15.31
2023-07-21T05:08:26.771Z,15.39
2023-07-21T05:10:58.515Z,15.64
2023-07-21T05:13:29.684Z,15.69
2023-07-21T05:16:25.578Z,15.84
2023-07-21T05:19:15.810Z,16.07
2023-07-21T05:22:17.166Z,16.06
2023-07-21T05:25:09.301Z,16.22
2023-07-21T05:27:46.007Z,16.56
2023-07-21T05:30:14.653Z,16.75
2023-07-21T05:32:49.458Z,16.55
2023-07-21T05:35:23.747Z,16.64
2023-07-21T05:37:56.913Z,16.99
2023-07-21T05:40:25.253Z,17.31
2023-07-21T05:42:52.510Z,17.93
2023-07-21T05:45:22.312Z,18.16
2023-07-21T05:47:51.241Z,19.12
2023-07-21T05:50:20.758Z,19.34
2023-07-21T05:52:53.010Z,19.34
2023-07-21T05:55:25.542Z,19.51
2023-07-21T05:57:56.299Z,19.81
2023-07-21T06:00:23.420Z,20.16
2023-07-21T06:02:58.051Z,20.18
2023-07-21T06:05:27.536Z,20.16
2023-07-21T06:08:08.346Z,20.05
2023-07-21T06:10:58.226Z,20.27
2023-07-21T06:13:46.101Z,20.31
2023-07-21T06:16:30.093Z,20.42
2023-07-21T06:19:01.867Z,20.88
2023-07-21T06:21:40.161Z,21.15
2023-07-21T06:24:10.134Z,21.25
2023-07-21T06:26:38.019Z,20.95
2023-07-21T06:29:08.645Z,20.90
2023-07-21T06:31:35.747Z,21.22
2023-07-21T06:34:29.891Z,21.72
2023-07-21T06:37:15.921Z,22.36
2023-07-21T06:40:21.281Z,22.91
2023-07-21T06:43:15.288Z,22.81
2023-07-21T06:45:53.802Z,22.95
2023-07-21T06:48:39.694Z,23.73
2023-07-21T06:51:16.019Z,24.30
2023-07-21T06:53:43.366Z,24.31
2023-07-21T06:56:11.892Z,23.58
2023-07-21T06:58:39.203Z,23.20
2023-07-21T07:01:06.531Z,23.14
2023-07-21T07:03:33.739Z,23.24
2023-07-21T07:06:00.897Z,24.19
2023-07-21T07:08:28.311Z,24.59
2023-07-21T07:10:55.845Z,24.14
2023-07-21T07:13:23.158Z,24.07
2023-07-21T07:15:54.664Z,24.38
2023-07-21T07:18:21.889Z,24.17
2023-07-21T07:20:53.134Z,23.69
2023-07-21T07:23:21.343Z,23.20
2023-07-21T07:25:54.016Z,23.24
2023-07-21T07:28:22.910Z,22.84
2023-07-21T07:30:50.652Z,22.57
2023-07-21T07:33:18.227Z,23.08
2023-07-21T07:35:52.347Z,23.17
2023-07-21T07:38:32.027Z,23.12
2023-07-21T07:41:07.282Z,23.12
2023-07-21T07:43:34.489Z,23.54
2023-07-21T07:46:02.453Z,24.04
2023-07-21T07:48:29.756Z,23.28
2023-07-21T07:51:03.265Z,22.66
2023-07-21T07:53:31.369Z,23.78
2023-07-21T07:56:00.224Z,23.89
2023-07-21T07:58:28.576Z,24.07
2023-07-21T08:01:02.624Z,24.62
2023-07-21T08:03:38.700Z,24.06
2023-07-21T08:06:07.176Z,23.86
2023-07-21T08:08:35.881Z,23.71
2023-07-21T08:11:04.319Z,23.59
2023-07-21T08:13:35.057Z,23.46
2023-07-21T08:16:09.878Z,23.18
2023-07-21T08:18:38.148Z,23.28
2023-07-21T08:21:26.018Z,23.60
2023-07-21T08:23:54.293Z,24.04
2023-07-21T08:26:22.262Z,24.04
2023-07-21T08:28:53.782Z,24.46
2023-07-21T08:31:24.792Z,24.44
2023-07-21T08:34:05.200Z,24.46
2023-07-21T08:36:54.738Z,23.92
2023-07-21T08:39:24.365Z,23.58
2023-07-21T08:41:52.020Z,24.14
2023-07-21T08:44:24.098Z,24.08
2023-07-21T08:46:51.888Z,24.77
2023-07-21T08:49:19.547Z,25.28
2023-07-21T08:51:47.066Z,25.81
2023-07-21T08:54:16.880Z,25.67
2023-07-21T08:56:44.434Z,24.75
2023-07-21T08:59:11.914Z,24.79
2023-07-21T09:01:39.730Z,25.06
2023-07-21T09:04:28.249Z,24.73
2023-07-21T09:06:58.247Z,25.15
2023-07-21T09:12:59.245Z,26.48
2023-07-21T09:16:02.721Z,27.20
2023-07-21T09:18:45.819Z,26.80
2023-07-21T09:21:24.022Z,27.28
2023-07-21T09:24:06.253Z,27.66
2023-07-21T09:26:37.131Z,27.35
2023-07-21T09:29:18.373Z,27.79
2023-07-21T09:31:48.682Z,28.23
2023-07-21T09:34:15.953Z,28.51
2023-07-21T09:36:47.139Z,27.96
2023-07-21T09:39:19.013Z,26.32
2023-07-21T09:41:47.423Z,25.43
2023-07-21T09:44:16.243Z,24.82
2023-07-21T09:46:43.507Z,25.02
2023-07-21T09:49:10.924Z,25.68
2023-07-21T09:51:40.805Z,26.17
2023-07-21T09:54:07.972Z,26.22
2023-07-21T09:56:41.347Z,25.89
2023-07-21T09:59:11.601Z,26.32
2023-07-21T10:01:40.431Z,26.83
2023-07-21T10:04:08.107Z,27.23
2023-07-21T10:06:36.758Z,27.63
2023-07-21T10:09:05.060Z,28.20
2023-07-21T10:11:32.656Z,28.99
2023-07-21T10:14:02.316Z,29.55
2023-07-21T10:16:43.593Z,30.17
2023-07-21T10:19:15.444Z,30.45
2023-07-21T10:21:53.158Z,30.57
2023-07-21T10:24:29.092Z,29.03
2023-07-21T10:27:02.560Z,29.11
2023-07-21T10:29:30.231Z,29.43
2023-07-21T10:31:59.158Z,29.52
2023-07-21T10:34:28.154Z,29.93
2023-07-21T10:36:55.263Z,29.92
2023-07-21T10:39:33.740Z,29.49
2023-07-21T10:42:05.412Z,29.67
2023-07-21T10:44:45.363Z,29.09
2023-07-21T10:47:18.139Z,29.03
2023-07-21T10:49:46.695Z,28.80
2023-07-21T10:52:13.957Z,28.69
2023-07-21T10:54:41.453Z,28.86
2023-07-21T10:57:10.434Z,29.17
2023-07-21T10:59:38.779Z,30.32
2023-07-21T11:02:09.056Z,30.70
2023-07-21T11:04:39.490Z,31.35
2023-07-21T11:07:07.017Z,31.87
2023-07-21T11:09:36.139Z,32.06
2023-07-21T11:12:05.254Z,32.30
2023-07-21T11:14:33.542Z,31.66
2023-07-21T11:17:03.560Z,31.29
2023-07-21T11:19:35.551Z,30.80
2023-07-21T11:22:06.048Z,29.61
2023-07-21T11:24:34.671Z,28.61
2023-07-21T11:27:12.295Z,28.03
2023-07-21T11:29:43.827Z,28.24
2023-07-21T11:32:24.320Z,29.98
2023-07-21T11:34:59.596Z,31.13
2023-07-21T11:37:35.900Z,31.04
2023-07-21T11:40:15.879Z,30.03
2023-07-21T11:42:44.107Z,29.43
2023-07-21T11:45:34.505Z,29.64
2023-07-21T11:48:19.691Z,29.06
2023-07-21T11:50:53.919Z,27.68
2023-07-21T11:53:23.518Z,26.53
2023-07-21T11:55:52.025Z,26.03
2023-07-21T11:58:19.265Z,25.16
2023-07-21T12:00:46.527Z,25.22
2023-07-21T12:03:14.118Z,24.85
2023-07-21T12:05:41.443Z,24.95
2023-07-21T12:08:08.683Z,24.60
2023-07-21T12:10:35.803Z,24.58
2023-07-21T12:13:05.544Z,25.25
2023-07-21T12:15:33.254Z,25.38
2023-07-21T12:18:00.699Z,24.99
2023-07-21T12:20:27.925Z,25.05
2023-07-21T12:22:54.948Z,26.38
2023-07-21T12:25:23.885Z,27.98
2023-07-21T12:27:51.987Z,29.68
2023-07-21T12:30:19.192Z,31.21
2023-07-21T12:32:46.497Z,32.39
2023-07-21T12:35:14.140Z,33.10
2023-07-21T12:37:41.387Z,33.32
2023-07-21T12:40:22.891Z,33.28
2023-07-21T12:42:54.031Z,33.49
2023-07-21T12:45:24.577Z,33.14
2023-07-21T12:47:52.463Z,33.60
2023-07-21T12:50:19.724Z,34.08
2023-07-21T12:52:47.801Z,34.10
2023-07-21T12:55:15.019Z,34.32
2023-07-21T12:57:42.605Z,34.66
2023-07-21T13:00:12.693Z,35.14
2023-07-21T13:02:42.934Z,35.35
2023-07-21T13:05:13.228Z,35.88
2023-07-21T13:07:40.859Z,36.18
2023-07-21T13:10:08.634Z,35.69
2023-07-21T13:12:36.007Z,32.99
2023-07-21T13:15:04.167Z,29.21
2023-07-21T13:17:32.569Z,27.56
2023-07-21T13:19:59.452Z,25.54
2023-07-21T13:22:26.625Z,24.33
2023-07-21T13:24:53.623Z,23.58
2023-07-21T13:27:20.844Z,22.67
2023-07-21T13:29:48.249Z,21.82
2023-07-21T13:32:15.543Z,21.34
2023-07-21T13:34:42.623Z,21.37
2023-07-21T13:37:09.785Z,21.82
2023-07-21T13:39:36.807Z,22.22
2023-07-21T13:42:04.712Z,22.76
2023-07-21T13:44:32.735Z,24.38
2023-07-21T13:46:59.920Z,26.28
2023-07-21T13:49:28.482Z,28.10
2023-07-21T13:51:55.458Z,29.28
2023-07-21T13:54:22.442Z,29.30
2023-07-21T13:56:49.671Z,29.99
2023-07-21T13:59:16.832Z,30.96
2023-07-21T14:01:44.112Z,31.03
2023-07-21T14:04:11.398Z,31.50
2023-07-21T14:06:39.290Z,31.64
2023-07-21T14:09:09.897Z,31.84
2023-07-21T14:11:39.712Z,31.22
2023-07-21T14:14:08.014Z,30.45
2023-07-21T14:16:35.380Z,29.14
2023-07-21T14:19:06.517Z,26.59
2023-07-21T14:21:35.192Z,25.29
2023-07-21T14:24:05.994Z,24.35
2023-07-21T14:26:33.568Z,23.95
2023-07-21T14:29:00.657Z,23.73
2023-07-21T14:31:28.567Z,23.77
2023-07-21T14:33:55.692Z,23.57
2023-07-21T14:36:25.496Z,23.43
2023-07-21T14:38:54.259Z,23.40
2023-07-21T14:41:21.332Z,23.20
2023-07-21T14:43:48.348Z,23.04
2023-07-21T14:46:15.390Z,22.93
2023-07-21T14:48:42.600Z,22.84
2023-07-21T14:51:10.306Z,22.87
2023-07-21T14:53:37.524Z,22.72
2023-07-21T14:56:04.765Z,22.61
2023-07-21T14:58:31.783Z,22.60
2023-07-21T15:00:59.552Z,22.54
2023-07-21T15:03:26.707Z,22.55
2023-07-21T15:05:53.828Z,22.56
2023-07-21T15:08:20.934Z,22.40
2023-07-21T15:10:48.086Z,22.58
2023-07-21T15:13:15.260Z,22.48
2023-07-21T15:15:42.300Z,22.55
2023-07-21T15:18:12.302Z,22.47
2023-07-21T15:20:39.330Z,22.48
2023-07-21T15:23:06.379Z,22.46
2023-07-21T15:25:33.393Z,22.14
2023-07-21T15:28:00.906Z,22.15
2023-07-21T15:30:28.077Z,22.22
2023-07-21T15:32:55.793Z,22.10
2023-07-21T15:35:22.996Z,22.17
2023-07-21T15:37:50.155Z,22.17
2023-07-21T15:40:19.722Z,22.15
2023-07-21T15:42:47.084Z,22.15
2023-07-21T15:45:14.422Z,22.22
2023-07-21T15:47:41.739Z,22.26
2023-07-21T15:50:14.347Z,22.11
2023-07-21T15:52:42.752Z,22.11
2023-07-21T15:55:12.918Z,22.19
2023-07-21T15:57:41.119Z,22.07
2023-07-21T16:00:20.235Z,22.07
2023-07-21T16:02:48.121Z,22.09
2023-07-21T16:05:18.944Z,22.03
2023-07-21T16:07:46.288Z,22.07
2023-07-21T16:10:14.809Z,22.11
2023-07-21T16:12:42.316Z,22.05
2023-07-21T16:15:10.476Z,22.08
2023-07-21T16:17:37.728Z,21.91
2023-07-21T16:20:10.162Z,22.03
2023-07-21T16:22:40.739Z,21.86
2023-07-21T16:25:09.027Z,21.71
2023-07-21T16:27:37.107Z,21.35
2023-07-21T16:30:04.865Z,21.49
2023-07-21T16:32:33.590Z,21.39
2023-07-21T16:35:01.155Z,21.22
2023-07-21T16:37:31.221Z,21.18
2023-07-21T16:39:59.083Z,20.99
2023-07-21T16:42:26.183Z,21.04
2023-07-21T16:44:53.576Z,20.90
2023-07-21T16:47:20.711Z,20.83
2023-07-21T16:49:47.638Z,20.79
2023-07-21T16:52:14.978Z,20.72
2023-07-21T16:54:43.030Z,20.63
2023-07-21T16:57:10.033Z,20.63
2023-07-21T16:59:50.561Z,20.42
2023-07-21T17:02:25.156Z,20.51
2023-07-21T17:04:55.819Z,20.38
2023-07-21T17:07:23.851Z,20.49
2023-07-21T17:09:51.796Z,20.41
2023-07-21T17:12:19.301Z,20.39
2023-07-21T17:14:46.601Z,20.37
2023-07-21T17:17:14.032Z,20.29
2023-07-21T17:19:41.253Z,19.96
2023-07-21T17:22:08.301Z,20.08
2023-07-21T17:24:35.419Z,20.02
2023-07-21T17:27:06.325Z,19.94
2023-07-21T17:29:34.078Z,19.82
2023-07-21T17:32:01.335Z,19.66
2023-07-21T17:34:28.495Z,19.58
2023-07-21T17:36:56.315Z,19.36
2023-07-21T17:39:23.364Z,19.31
2023-07-21T17:41:50.563Z,19.23
2023-07-21T17:44:17.675Z,18.98
2023-07-21T17:46:44.666Z,19.08
2023-07-21T17:49:11.739Z,19.00
2023-07-21T17:51:38.846Z,18.93
2023-07-21T17:54:05.865Z,18.76
2023-07-21T17:56:33.140Z,18.76
2023-07-21T17:59:00.269Z,18.70
2023-07-21T18:01:27.799Z,18.66
2023-07-21T18:03:57.517Z,18.56
2023-07-21T18:06:25.086Z,18.50
2023-07-21T18:08:52.663Z,18.45
2023-07-21T18:11:20.077Z,18.26
2023-07-21T18:13:47.189Z,18.30
2023-07-21T18:16:18.673Z,18.25
2023-07-21T18:18:45.820Z,18.16
2023-07-21T18:21:13.152Z,18.04
2023-07-21T18:23:40.926Z,18.03
2023-07-21T18:26:08.292Z,17.95
2023-07-21T18:28:36.182Z,17.91
2023-07-21T18:31:08.265Z,17.87
2023-07-21T18:33:36.989Z,17.78
2023-07-21T18:36:12.508Z,17.73
2023-07-21T18:38:43.697Z,17.55
2023-07-21T18:41:11.031Z,17.69
2023-07-21T18:43:38.141Z,17.56
2023-07-21T18:46:05.223Z,17.73
2023-07-21T18:48:33.765Z,17.75
2023-07-21T18:51:01.554Z,17.75
2023-07-21T18:53:29.604Z,17.77
2023-07-21T18:55:57.399Z,17.72
2023-07-21T18:58:24.556Z,17.77
2023-07-21T19:00:51.883Z,17.81
2023-07-21T19:03:19.052Z,17.72
2023-07-21T19:05:46.208Z,17.63
2023-07-21T19:08:13.503Z,17.74
2023-07-21T19:10:40.924Z,17.69
2023-07-21T19:13:08.013Z,17.70
2023-07-21T19:15:38.101Z,17.66
2023-07-21T19:18:05.206Z,17.63
2023-07-21T19:20:32.333Z,17.63
2023-07-21T19:22:59.984Z,17.60
2023-07-21T19:25:27.102Z,17.45
2023-07-21T19:27:54.100Z,17.27
2023-07-21T19:30:21.269Z,17.18
2023-07-21T19:32:48.467Z,17.35
2023-07-21T19:35:15.529Z,17.46
2023-07-21T19:37:43.191Z,17.48
2023-07-21T19:40:10.926Z,17.48
2023-07-21T19:42:38.023Z,17.47
2023-07-21T19:45:07.828Z,17.45
2023-07-21T19:47:35.019Z,17.47
2023-07-21T19:50:02.160Z,17.53
2023-07-21T19:52:31.592Z,17.40
2023-07-21T19:54:58.625Z,17.39
2023-07-21T19:57:27.528Z,17.47
2023-07-21T19:59:54.583Z,17.41
2023-07-21T20:02:22.717Z,17.34
2023-07-21T20:04:49.946Z,17.17
2023-07-21T20:07:17.008Z,17.27
2023-07-21T20:09:44.032Z,17.22
2023-07-21T20:12:11.041Z,17.08
2023-07-21T20:14:38.412Z,17.11
2023-07-21T20:17:05.848Z,17.14
2023-07-21T20:19:32.970Z,17.01
2023-07-21T20:22:00.549Z,17.02
2023-07-21T20:24:27.703Z,16.86
2023-07-21T20:26:54.893Z,16.80
2023-07-21T20:29:21.905Z,16.78
2023-07-21T20:31:50.187Z,16.77
2023-07-21T20:34:17.633Z,16.73
2023-07-21T20:36:45.392Z,16.50
2023-07-21T20:39:13.677Z,16.60
2023-07-21T20:41:41.206Z,16.54
2023-07-21T20:44:08.279Z,16.53
2023-07-21T20:46:35.578Z,16.35
2023-07-21T20:49:02.728Z,16.36
2023-07-21T20:51:30.311Z,16.27
2023-07-21T20:53:57.413Z,16.22
2023-07-21T20:56:25.002Z,16.11
2023-07-21T20:58:52.335Z,15.92
2023-07-21T21:01:19.502Z,15.91
2023-07-21T21:03:47.291Z,15.87
2023-07-21T21:06:14.380Z,15.81
2023-07-21T21:08:41.765Z,15.77
2023-07-21T21:11:09.255Z,15.71
2023-07-21T21:13:36.892Z,15.64
2023-07-21T21:16:04.444Z,15.61
2023-07-21T21:18:31.796Z,15.46
2023-07-21T21:20:58.979Z,15.52
2023-07-21T21:23:26.048Z,15.39
2023-07-21T21:25:57.164Z,15.42
2023-07-21T21:28:24.991Z,15.33
2023-07-21T21:31:00.254Z,15.25
2023-07-21T21:33:28.317Z,15.17
2023-07-21T21:35:58.973Z,15.22
2023-07-21T21:38:26.471Z,15.00
2023-07-21T21:40:57.317Z,15.18
2023-07-21T21:43:25.070Z,15.12
2023-07-21T21:45:52.212Z,14.95
2023-07-21T21:48:19.435Z,14.96
2023-07-21T21:50:46.752Z,14.84
2023-07-21T21:53:14.147Z,14.86
2023-07-21T21:55:41.685Z,14.83
2023-07-21T21:58:09.043Z,14.75
2023-07-21T22:00:41.523Z,14.62
2023-07-21T22:03:09.787Z,14.64
2023-07-21T22:05:37.387Z,14.63
2023-07-21T22:08:05.110Z,14.43
2023-07-21T22:10:32.237Z,14.41
2023-07-21T22:12:59.302Z,14.48
2023-07-21T22:15:26.346Z,14.28
2023-07-21T22:17:53.504Z,14.37
2023-07-21T22:20:21.336Z,14.25
2023-07-21T22:22:49.107Z,14.15
2023-07-21T22:25:16.521Z,14.09
2023-07-21T22:27:43.678Z,14.21
2023-07-21T22:30:12.062Z,14.16
2023-07-21T22:32:39.311Z,13.96
2023-07-21T22:35:06.730Z,14.06
2023-07-21T22:37:33.897Z,13.95
2023-07-21T22:40:00.989Z,14.00
2023-07-21T22:42:28.448Z,14.00
2023-07-21T22:44:55.520Z,13.77
2023-07-21T22:47:22.956Z,13.95
2023-07-21T22:49:50.518Z,13.86
2023-07-21T22:52:17.601Z,13.77
2023-07-21T22:54:44.626Z,13.89
2023-07-21T22:57:11.701Z,13.75
2023-07-21T22:59:38.883Z,13.84
2023-07-21T23:02:06.458Z,13.75
2023-07-21T23:04:33.551Z,13.79
2023-07-21T23:07:00.823Z,13.58
2023-07-21T23:09:28.189Z,13.65
2023-07-21T23:11:55.231Z,13.58
2023-07-21T23:14:22.357Z,13.59
2023-07-21T23:16:50.391Z,13.41
2023-07-21T23:19:17.847Z,13.43
2023-07-21T23:21:45.159Z,13.35
2023-07-21T23:24:12.848Z,13.44
2023-07-21T23:26:40.248Z,13.42
2023-07-21T23:29:07.445Z,13.41
2023-07-21T23:31:35.291Z,13.29
2023-07-21T23:34:02.960Z,13.37
2023-07-21T23:36:30.231Z,13.33
2023-07-21T23:38:57.202Z,13.03
2023-07-21T23:41:24.467Z,13.24
2023-07-21T23:43:51.596Z,13.14
2023-07-21T23:46:18.698Z,13.09
2023-07-21T23:48:45.787Z,13.12
2023-07-21T23:51:13.431Z,13.01
2023-07-21T23:53:40.608Z,13.02
2023-07-21T23:56:07.810Z,12.93
2023-07-21T23:58:34.809Z,13.04
